createdAt,value
2023-04-04T00:00:15.970Z,65.24
2023-04-04T00:02:42.373Z,66.12
2023-04-04T00:05:09.618Z,64.80
2023-04-04T00:07:36.166Z,65.72
2023-04-04T00:10:02.528Z,65.68
2023-04-04T00:12:29.911Z,66.20
2023-04-04T00:14:57.396Z,65.68
2023-04-04T00:17:23.874Z,66.16
2023-04-04T00:19:50.477Z,66.43
2023-04-04T00:22:18.022Z,65.21
2023-04-04T00:24:44.378Z,66.39
2023-04-04T00:27:10.744Z,66.36
2023-04-04T00:29:37.310Z,65.55
2023-04-04T00:32:03.994Z,67.04
2023-04-04T00:34:30.324Z,66.67
2023-04-04T00:36:56.632Z,66.51
2023-04-04T00:39:23.691Z,66.66
2023-04-04T00:41:50.375Z,67.48
2023-04-04T00:44:17.017Z,66.96
2023-04-04T00:46:43.490Z,67.62
2023-04-04T00:49:10.170Z,67.93
2023-04-04T00:51:36.617Z,67.23
2023-04-04T00:54:03.474Z,67.47
2023-04-04T00:56:31.390Z,67.15
2023-04-04T00:58:57.955Z,67.41
2023-04-04T01:01:27.428Z,67.76
2023-04-04T01:03:54.385Z,67.53
2023-04-04T01:06:21.039Z,69.00
2023-04-04T01:08:48.310Z,68.66
2023-04-04T01:11:15.509Z,69.06
2023-04-04T01:13:43.619Z,69.76
2023-04-04T01:16:13.796Z,70.47
2023-04-04T01:18:42.664Z,70.94
2023-04-04T01:21:14.073Z,70.19
2023-04-04T01:24:03.781Z,70.29
2023-04-04T01:26:41.810Z,72.08
2023-04-04T01:29:08.190Z,71.78
2023-04-04T01:31:41.654Z,70.71
2023-04-04T01:34:20.806Z,70.38
2023-04-04T01:37:03.327Z,70.23
2023-04-04T01:39:41.933Z,71.08
2023-04-04T01:42:09.714Z,71.25
2023-04-04T01:44:36.284Z,71.59
2023-04-04T01:47:06.893Z,70.43
2023-04-04T01:49:33.562Z,71.05
2023-04-04T01:52:01.154Z,71.14
2023-04-04T01:54:28.260Z,71.72
2023-04-04T01:56:54.640Z,72.22
2023-04-04T01:59:21.395Z,70.59
2023-04-04T02:01:47.792Z,71.97
2023-04-04T02:04:15.104Z,72.23
2023-04-04T02:06:41.495Z,72.40
2023-04-04T02:09:07.821Z,71.87
2023-04-04T02:11:34.164Z,71.51
2023-04-04T02:14:00.836Z,72.18
2023-04-04T02:16:27.646Z,72.16
2023-04-04T02:18:54.133Z,72.81
2023-04-04T02:21:20.599Z,72.27
2023-04-04T02:23:47.124Z,72.60
2023-04-04T02:26:14.050Z,72.59
2023-04-04T02:28:40.366Z,72.56
2023-04-04T02:31:07.121Z,72.86
2023-04-04T02:33:33.489Z,72.32
2023-04-04T02:36:03.044Z,72.79
2023-04-04T02:38:29.931Z,72.63
2023-04-04T02:40:56.307Z,71.95
2023-04-04T02:43:22.697Z,72.64
2023-04-04T02:45:50.026Z,72.03
2023-04-04T02:48:22.171Z,72.81
2023-04-04T02:50:51.565Z,71.68
2023-04-04T02:53:17.893Z,72.51
2023-04-04T02:55:46.290Z,72.31
2023-04-04T02:58:13.462Z,72.30
2023-04-04T03:00:40.139Z,72.34
2023-04-04T03:03:07.377Z,73.07
2023-04-04T03:05:39.419Z,72.69
2023-04-04T03:08:05.901Z,73.57
2023-04-04T03:10:32.337Z,73.92
2023-04-04T03:12:59.084Z,74.36
2023-04-04T03:15:27.580Z,73.87
2023-04-04T03:17:54.343Z,74.37
2023-04-04T03:20:24.796Z,74.65
2023-04-04T03:22:51.227Z,74.30
2023-04-04T03:25:17.693Z,75.13
2023-04-04T03:27:44.300Z,74.67
2023-04-04T03:30:17.790Z,75.05
2023-04-04T03:32:44.616Z,74.97
2023-04-04T03:35:11.665Z,74.73
2023-04-04T03:37:40.338Z,75.01
2023-04-04T03:40:07.478Z,74.65
2023-04-04T03:42:34.903Z,75.33
2023-04-04T03:45:07.251Z,74.91
2023-04-04T03:47:33.890Z,74.26
2023-04-04T03:50:01.026Z,74.09
2023-04-04T03:52:28.134Z,74.19
2023-04-04T03:54:54.458Z,74.68
2023-04-04T03:57:20.996Z,74.92
2023-04-04T03:59:47.931Z,74.13
2023-04-04T04:02:14.264Z,74.83
2023-04-04T04:04:40.747Z,74.49
2023-04-04T04:07:07.673Z,74.49
2023-04-04T04:09:35.297Z,74.76
2023-04-04T04:12:01.631Z,75.17
2023-04-04T04:14:27.971Z,74.96
2023-04-04T04:16:54.434Z,75.48
2023-04-04T04:19:22.311Z,75.64
2023-04-04T04:21:48.840Z,75.56
2023-04-04T04:24:15.520Z,75.91
2023-04-04T04:26:41.989Z,75.55
2023-04-04T04:29:08.491Z,75.65
2023-04-04T04:31:34.936Z,76.55
2023-04-04T04:34:03.192Z,76.32
2023-04-04T04:36:30.787Z,75.95
2023-04-04T04:39:23.301Z,75.72
2023-04-04T04:42:03.115Z,76.59
2023-04-04T04:44:30.379Z,76.38
2023-04-04T04:46:57.021Z,76.50
2023-04-04T04:49:23.426Z,76.42
2023-04-04T04:51:51.041Z,76.19
2023-04-04T04:54:19.119Z,76.70
2023-04-04T04:56:48.233Z,77.33
2023-04-04T04:59:15.635Z,77.20
2023-04-04T05:01:43.684Z,77.59
2023-04-04T05:04:10.126Z,77.19
2023-04-04T05:06:42.349Z,77.40
2023-04-04T05:09:11.060Z,77.29
2023-04-04T05:11:38.384Z,77.91
2023-04-04T05:14:07.055Z,77.47
2023-04-04T05:16:38.351Z,77.48
2023-04-04T05:19:05.917Z,77.34
2023-04-04T05:21:37.718Z,77.30
2023-04-04T05:24:07.466Z,77.88
2023-04-04T05:26:37.776Z,77.52
2023-04-04T05:29:04.392Z,77.51
2023-04-04T05:31:32.501Z,77.37
2023-04-04T05:34:08.148Z,77.30
2023-04-04T05:36:37.807Z,77.58
2023-04-04T05:39:06.219Z,77.58
2023-04-04T05:41:36.483Z,77.79
2023-04-04T05:44:10.599Z,77.59
2023-04-04T05:46:37.496Z,77.97
2023-04-04T05:49:04.124Z,77.00
2023-04-04T05:51:32.210Z,77.51
2023-04-04T05:54:07.440Z,77.29
2023-04-04T05:56:34.742Z,77.20
2023-04-04T05:59:03.944Z,77.68
2023-04-04T06:01:33.358Z,77.93
2023-04-04T06:04:06.563Z,76.84
2023-04-04T06:06:34.561Z,76.47
2023-04-04T06:09:01.281Z,76.66
2023-04-04T06:11:28.142Z,76.93
2023-04-04T06:14:02.103Z,75.37
2023-04-04T06:16:29.256Z,74.10
2023-04-04T06:18:55.732Z,75.25
2023-04-04T06:21:22.048Z,74.96
2023-04-04T06:23:48.978Z,74.00
2023-04-04T06:26:15.302Z,72.52
2023-04-04T06:28:50.604Z,71.41
2023-04-04T06:31:21.422Z,70.99
2023-04-04T06:33:48.962Z,70.76
2023-04-04T06:36:17.216Z,69.74
2023-04-04T06:38:43.641Z,70.21
2023-04-04T06:41:16.272Z,69.48
2023-04-04T06:43:46.614Z,68.58
2023-04-04T06:46:12.992Z,68.48
2023-04-04T06:48:39.313Z,68.77
2023-04-04T06:51:09.081Z,67.73
2023-04-04T06:53:38.508Z,68.33
2023-04-04T06:56:05.249Z,66.27
2023-04-04T06:58:32.425Z,65.76
2023-04-04T07:01:02.089Z,64.83
2023-04-04T07:03:28.422Z,65.46
2023-04-04T07:05:54.887Z,65.85
2023-04-04T07:08:21.228Z,64.95
2023-04-04T07:10:47.630Z,64.63
2023-04-04T07:13:14.442Z,64.04
2023-04-04T07:15:40.937Z,63.19
2023-04-04T07:18:07.666Z,64.50
2023-04-04T07:20:34.161Z,63.07
2023-04-04T07:23:00.508Z,62.38
2023-04-04T07:25:29.040Z,61.04
2023-04-04T07:28:05.636Z,61.86
2023-04-04T07:30:38.828Z,61.20
2023-04-04T07:33:05.588Z,60.58
2023-04-04T07:35:32.031Z,60.37
2023-04-04T07:37:58.395Z,60.32
2023-04-04T07:40:25.471Z,59.48
2023-04-04T07:42:54.243Z,59.21
2023-04-04T07:45:22.063Z,59.09
2023-04-04T07:47:48.619Z,58.28
2023-04-04T07:50:16.058Z,57.41
2023-04-04T07:52:42.855Z,57.46
2023-04-04T07:55:09.385Z,56.33
2023-04-04T07:57:39.341Z,55.76
2023-04-04T08:00:09.663Z,56.22
2023-04-04T08:02:40.146Z,55.33
2023-04-04T08:05:07.441Z,53.70
2023-04-04T08:07:33.839Z,54.32
2023-04-04T08:10:00.348Z,54.09
2023-04-04T08:12:26.670Z,53.62
2023-04-04T08:14:53.159Z,52.65
2023-04-04T08:17:20.337Z,51.24
2023-04-04T08:19:46.673Z,52.36
2023-04-04T08:22:13.520Z,51.63
2023-04-04T08:24:39.859Z,48.87
2023-04-04T08:27:06.665Z,49.52
2023-04-04T08:29:34.561Z,50.59
2023-04-04T08:32:01.135Z,48.86
2023-04-04T08:34:28.413Z,47.79
2023-04-04T08:36:54.831Z,46.59
2023-04-04T08:39:21.340Z,47.17
2023-04-04T08:41:47.758Z,45.72
2023-04-04T08:44:20.388Z,45.01
2023-04-04T08:46:49.157Z,44.12
2023-04-04T08:49:21.022Z,43.69
2023-04-04T08:51:49.204Z,42.82
2023-04-04T08:54:17.043Z,45.54
2023-04-04T08:56:43.406Z,44.01
2023-04-04T08:59:13.817Z,43.90
2023-04-04T09:01:40.276Z,43.50
2023-04-04T09:04:08.570Z,43.85
2023-04-04T09:06:35.700Z,44.60
2023-04-04T09:09:02.989Z,43.08
2023-04-04T09:11:31.591Z,43.04
2023-04-04T09:13:58.680Z,43.38
2023-04-04T09:16:26.193Z,43.59
2023-04-04T09:18:52.830Z,43.11
2023-04-04T09:21:19.577Z,42.21
2023-04-04T09:23:45.939Z,41.24
2023-04-04T09:26:13.179Z,42.55
2023-04-04T09:28:39.501Z,41.32
2023-04-04T09:31:09.703Z,42.36
2023-04-04T09:33:36.342Z,41.44
2023-04-04T09:36:12.608Z,41.40
2023-04-04T09:38:40.839Z,42.47
2023-04-04T09:41:11.112Z,41.44
2023-04-04T09:43:39.682Z,40.98
2023-04-04T09:46:06.721Z,41.43
2023-04-04T09:48:36.158Z,40.34
2023-04-04T09:51:05.806Z,41.37
2023-04-04T09:53:35.319Z,40.63
2023-04-04T09:56:02.862Z,40.96
2023-04-04T09:58:31.770Z,40.59
2023-04-04T10:01:03.007Z,39.18
2023-04-04T10:03:30.483Z,41.10
2023-04-04T10:06:06.425Z,39.99
2023-04-04T10:08:34.438Z,40.29
2023-04-04T10:13:40.430Z,40.29
2023-04-04T10:16:08.515Z,38.89
2023-04-04T10:18:35.701Z,40.68
2023-04-04T10:21:14.147Z,39.55
2023-04-04T10:23:42.495Z,40.60
2023-04-04T10:26:09.143Z,40.57
2023-04-04T10:28:35.600Z,38.31
2023-04-04T10:31:19.939Z,40.24
2023-04-04T10:34:28.269Z,38.04
2023-04-04T10:37:06.640Z,38.46
2023-04-04T10:39:38.255Z,37.67
2023-04-04T10:42:06.771Z,37.75
2023-04-04T10:44:38.859Z,37.48
2023-04-04T10:47:16.859Z,38.07
2023-04-04T10:49:47.609Z,38.98
2023-04-04T10:52:16.391Z,38.97
2023-04-04T10:54:44.642Z,37.68
2023-04-04T10:57:12.676Z,39.45
2023-04-04T10:59:58.711Z,38.98
2023-04-04T11:02:54.413Z,37.77
2023-04-04T11:05:24.822Z,37.76
2023-04-04T11:08:08.666Z,37.97
2023-04-04T11:10:41.620Z,37.82
2023-04-04T11:13:21.979Z,37.32
2023-04-04T11:15:58.476Z,37.86
2023-04-04T11:18:45.925Z,39.88
2023-04-04T11:21:18.429Z,37.23
2023-04-04T11:23:48.021Z,33.64
2023-04-04T11:26:19.822Z,34.44
2023-04-04T11:28:46.993Z,34.34
2023-04-04T11:31:20.305Z,34.53
2023-04-04T11:34:06.168Z,34.62
2023-04-04T11:36:35.712Z,34.72
2023-04-04T11:39:28.318Z,35.84
2023-04-04T11:41:54.884Z,34.64
2023-04-04T11:44:23.394Z,35.52
2023-04-04T11:46:56.190Z,36.78
2023-04-04T11:49:29.780Z,34.81
2023-04-04T11:51:57.260Z,36.63
2023-04-04T11:54:24.302Z,37.29
2023-04-04T11:56:51.213Z,36.02
2023-04-04T11:59:19.838Z,35.37
2023-04-04T12:01:46.876Z,36.75
2023-04-04T12:04:19.814Z,36.85
2023-04-04T12:06:54.156Z,36.54
2023-04-04T12:09:23.398Z,34.20
2023-04-04T12:11:50.595Z,34.88
2023-04-04T12:14:18.176Z,34.12
2023-04-04T12:16:48.253Z,34.17
2023-04-04T12:19:15.443Z,35.61
2023-04-04T12:21:42.013Z,33.96
2023-04-04T12:24:09.241Z,33.55
2023-04-04T12:26:41.284Z,34.29
2023-04-04T12:29:09.412Z,34.06
2023-04-04T12:31:38.224Z,34.65
2023-04-04T12:34:04.920Z,34.68
2023-04-04T12:36:32.817Z,35.17
2023-04-04T12:39:06.565Z,33.54
2023-04-04T12:41:33.903Z,32.56
2023-04-04T12:44:02.581Z,33.35
2023-04-04T12:46:36.185Z,35.57
2023-04-04T12:49:04.044Z,33.60
2023-04-04T12:51:32.699Z,33.90
2023-04-04T12:53:59.674Z,34.19
2023-04-04T12:56:27.641Z,35.22
2023-04-04T12:59:00.402Z,34.39
2023-04-04T13:01:27.122Z,36.16
2023-04-04T13:03:53.668Z,35.25
2023-04-04T13:06:21.284Z,33.30
2023-04-04T13:08:52.334Z,33.34
2023-04-04T13:11:19.195Z,33.63
2023-04-04T13:16:37.372Z,32.72
2023-04-04T13:19:04.390Z,32.23
2023-04-04T13:21:31.154Z,32.18
2023-04-04T13:23:57.714Z,32.88
2023-04-04T13:26:24.041Z,31.22
2023-04-04T13:28:50.586Z,32.23
2023-04-04T13:31:17.381Z,32.57
2023-04-04T13:33:44.649Z,33.24
2023-04-04T13:36:11.175Z,33.10
2023-04-04T13:38:37.587Z,32.98
2023-04-04T13:41:03.962Z,34.39
2023-04-04T13:43:30.405Z,33.91
2023-04-04T13:45:56.869Z,33.72
2023-04-04T13:48:23.395Z,33.86
2023-04-04T13:50:52.641Z,32.78
2023-04-04T13:53:19.087Z,31.52
2023-04-04T13:56:01.402Z,32.87
2023-04-04T13:58:32.319Z,34.41
2023-04-04T14:00:58.700Z,34.18
2023-04-04T14:03:25.153Z,32.30
2023-04-04T14:05:51.568Z,32.81
2023-04-04T14:08:17.920Z,32.68
2023-04-04T14:10:44.228Z,33.17
2023-04-04T14:13:10.599Z,32.60
2023-04-04T14:15:37.026Z,32.82
2023-04-04T14:18:03.475Z,33.58
2023-04-04T14:20:29.852Z,31.61
2023-04-04T14:22:56.221Z,32.29
2023-04-04T14:25:22.568Z,31.55
2023-04-04T14:27:49.094Z,33.23
2023-04-04T14:30:15.896Z,32.51
2023-04-04T14:32:42.407Z,31.57
2023-04-04T14:35:09.241Z,30.83
2023-04-04T14:37:35.736Z,32.67
2023-04-04T14:40:02.111Z,34.14
2023-04-04T14:42:28.491Z,34.15
2023-04-04T14:44:55.144Z,33.04
2023-04-04T14:47:21.924Z,32.41
2023-04-04T14:49:48.315Z,32.01
2023-04-04T14:52:14.686Z,32.33
2023-04-04T14:54:41.192Z,32.99
2023-04-04T14:57:07.589Z,33.36
2023-04-04T14:59:34.063Z,33.55
2023-04-04T15:02:00.433Z,32.80
2023-04-04T15:04:27.119Z,33.83
2023-04-04T15:06:53.629Z,33.53
2023-04-04T15:09:20.250Z,33.22
2023-04-04T15:11:47.306Z,33.43
2023-04-04T15:14:14.225Z,33.41
2023-04-04T15:16:40.836Z,34.06
2023-04-04T15:19:07.457Z,34.55
2023-04-04T15:21:33.802Z,34.62
2023-04-04T15:24:00.335Z,32.78
2023-04-04T15:26:26.772Z,32.83
2023-04-04T15:28:53.220Z,31.97
2023-04-04T15:31:20.653Z,32.34
2023-04-04T15:33:47.091Z,33.14
2023-04-04T15:36:13.606Z,32.47
2023-04-04T15:38:40.119Z,31.25
2023-04-04T15:41:10.264Z,33.04
2023-04-04T15:43:37.038Z,32.54
2023-04-04T15:46:03.511Z,33.32
2023-04-04T15:48:30.040Z,33.12
2023-04-04T15:51:02.226Z,33.24
2023-04-04T15:53:32.607Z,33.75
2023-04-04T15:55:59.712Z,31.89
2023-04-04T15:58:26.362Z,33.10
2023-04-04T16:00:53.564Z,33.61
2023-04-04T16:03:20.499Z,34.17
2023-04-04T16:05:46.934Z,34.24
2023-04-04T16:08:14.697Z,34.09
2023-04-04T16:10:41.445Z,34.47
2023-04-04T16:13:08.035Z,35.11
2023-04-04T16:15:34.379Z,34.95
2023-04-04T16:18:01.160Z,34.28
2023-04-04T16:20:27.792Z,34.63
2023-04-04T16:22:55.718Z,35.15
2023-04-04T16:25:22.677Z,35.04
2023-04-04T16:27:49.000Z,36.58
2023-04-04T16:30:15.585Z,35.81
2023-04-04T16:32:42.143Z,36.29
2023-04-04T16:35:09.298Z,36.26
2023-04-04T16:37:35.722Z,35.82
2023-04-04T16:40:02.050Z,35.95
2023-04-04T16:42:28.467Z,35.72
2023-04-04T16:44:54.819Z,35.88
2023-04-04T16:47:21.175Z,35.68
2023-04-04T16:49:48.837Z,36.66
2023-04-04T16:52:15.831Z,36.84
2023-04-04T16:54:45.590Z,35.92
2023-04-04T16:57:11.997Z,36.46
2023-04-04T16:59:38.462Z,36.28
2023-04-04T17:02:07.766Z,37.67
2023-04-04T17:04:34.522Z,38.31
2023-04-04T17:07:00.853Z,37.97
2023-04-04T17:09:27.699Z,37.68
2023-04-04T17:11:54.029Z,37.38
2023-04-04T17:14:20.377Z,38.25
2023-04-04T17:16:46.715Z,38.03
2023-04-04T17:19:13.074Z,37.97
2023-04-04T17:21:39.392Z,38.21
2023-04-04T17:24:05.895Z,39.77
2023-04-04T17:26:32.283Z,40.23
2023-04-04T17:28:58.634Z,40.57
2023-04-04T17:31:25.122Z,40.44
2023-04-04T17:33:51.609Z,41.17
2023-04-04T17:36:17.992Z,41.53
2023-04-04T17:38:44.368Z,41.15
2023-04-04T17:41:11.582Z,41.54
2023-04-04T17:43:38.288Z,41.14
2023-04-04T17:46:06.539Z,40.51
2023-04-04T17:48:36.541Z,40.25
2023-04-04T17:51:06.174Z,40.64
2023-04-04T17:53:34.265Z,40.64
2023-04-04T17:56:00.839Z,40.27
2023-04-04T17:58:27.156Z,40.39
2023-04-04T18:00:55.651Z,41.01
2023-04-04T18:03:23.120Z,41.24
2023-04-04T18:05:49.829Z,40.98
2023-04-04T18:08:16.618Z,41.74
2023-04-04T18:10:43.268Z,41.80
2023-04-04T18:13:09.729Z,42.40
2023-04-04T18:15:36.272Z,42.49
2023-04-04T18:18:02.939Z,42.63
2023-04-04T18:20:34.972Z,41.99
2023-04-04T18:23:03.852Z,42.21
2023-04-04T18:25:31.605Z,42.27
2023-04-04T18:27:58.010Z,42.76
2023-04-04T18:30:24.356Z,42.93
2023-04-04T18:32:50.913Z,43.77
2023-04-04T18:35:17.326Z,44.06
2023-04-04T18:37:43.638Z,44.03
2023-04-04T18:40:10.380Z,43.75
2023-04-04T18:42:36.880Z,43.97
2023-04-04T18:45:03.737Z,43.61
2023-04-04T18:47:30.058Z,43.93
2023-04-04T18:49:56.497Z,44.10
2023-04-04T18:52:22.811Z,44.03
2023-04-04T18:54:50.070Z,44.31
2023-04-04T18:57:16.680Z,44.76
2023-04-04T18:59:42.997Z,44.84
2023-04-04T19:02:09.380Z,44.86
2023-04-04T19:04:35.998Z,44.80
2023-04-04T19:07:06.570Z,45.01
2023-04-04T19:09:33.579Z,45.27
2023-04-04T19:12:00.061Z,45.45
2023-04-04T19:14:27.061Z,45.58
2023-04-04T19:16:53.981Z,45.58
2023-04-04T19:19:21.424Z,45.52
2023-04-04T19:21:47.891Z,45.90
2023-04-04T19:24:14.891Z,45.92
2023-04-04T19:26:41.334Z,45.95
2023-04-04T19:29:09.311Z,45.99
2023-04-04T19:31:36.095Z,45.99
2023-04-04T19:34:03.708Z,46.22
2023-04-04T19:36:36.051Z,46.31
2023-04-04T19:39:02.499Z,46.59
2023-04-04T19:41:36.676Z,46.37
2023-04-04T19:44:04.763Z,46.55
2023-04-04T19:46:33.011Z,46.06
2023-04-04T19:49:03.110Z,45.66
2023-04-04T19:51:29.553Z,45.91
2023-04-04T19:53:57.355Z,45.78
2023-04-04T19:56:26.092Z,46.25
2023-04-04T19:58:57.667Z,46.18
2023-04-04T20:01:29.104Z,46.54
2023-04-04T20:03:56.551Z,46.70
2023-04-04T20:06:28.182Z,46.59
2023-04-04T20:08:56.824Z,46.79
2023-04-04T20:11:31.007Z,47.07
2023-04-04T20:13:59.147Z,46.93
2023-04-04T20:16:25.835Z,47.44
2023-04-04T20:18:52.474Z,47.27
2023-04-04T20:21:31.330Z,47.14
2023-04-04T20:24:00.160Z,47.48
2023-04-04T20:26:38.412Z,47.79
2023-04-04T20:29:12.876Z,47.36
2023-04-04T20:31:47.447Z,47.45
2023-04-04T20:34:41.323Z,47.48
2023-04-04T20:37:21.481Z,47.35
2023-04-04T20:39:55.727Z,47.55
2023-04-04T20:42:31.249Z,47.55
2023-04-04T20:45:09.741Z,47.84
2023-04-04T20:47:51.850Z,47.56
2023-04-04T20:50:21.158Z,47.59
2023-04-04T20:53:02.980Z,47.29
2023-04-04T20:55:31.584Z,47.66
2023-04-04T20:58:08.069Z,48.13
2023-04-04T21:00:41.819Z,48.03
2023-04-04T21:03:11.443Z,48.18
2023-04-04T21:05:39.525Z,47.75
2023-04-04T21:08:24.132Z,48.16
2023-04-04T21:10:52.919Z,47.85
2023-04-04T21:13:36.564Z,47.88
2023-04-04T21:16:07.007Z,47.56
2023-04-04T21:18:33.628Z,47.50
2023-04-04T21:21:13.164Z,47.62
2023-04-04T21:23:39.446Z,47.61
2023-04-04T21:26:16.638Z,47.78
2023-04-04T21:28:44.947Z,48.07
2023-04-04T21:31:16.121Z,48.13
2023-04-04T21:33:44.110Z,48.47
2023-04-04T21:36:29.524Z,48.71
2023-04-04T21:38:59.225Z,49.22
2023-04-04T21:41:31.465Z,51.02
2023-04-04T21:43:59.579Z,50.34
2023-04-04T21:46:27.605Z,51.10
2023-04-04T21:48:54.729Z,51.23
2023-04-04T21:51:21.456Z,51.60
2023-04-04T21:53:48.996Z,51.48
2023-04-04T21:56:16.184Z,51.89
2023-04-04T21:58:42.665Z,51.48
2023-04-04T22:01:09.058Z,52.21
2023-04-04T22:03:37.762Z,52.69
2023-04-04T22:06:04.427Z,53.13
2023-04-04T22:08:31.297Z,52.61
2023-04-04T22:10:59.300Z,52.46
2023-04-04T22:13:30.913Z,53.04
2023-04-04T22:16:00.916Z,52.74
2023-04-04T22:18:32.923Z,53.43
2023-04-04T22:21:06.824Z,54.17
2023-04-04T22:23:36.195Z,54.63
2023-04-04T22:26:07.047Z,54.72
2023-04-04T22:28:34.149Z,55.21
2023-04-04T22:31:01.838Z,54.92
2023-04-04T22:33:29.649Z,55.93
2023-04-04T22:35:59.982Z,56.34
2023-04-04T22:38:27.193Z,56.85
2023-04-04T22:40:54.438Z,57.77
2023-04-04T22:43:21.749Z,57.02
2023-04-04T22:45:49.054Z,57.87
2023-04-04T22:48:15.600Z,56.97
2023-04-04T22:50:42.190Z,57.83
2023-04-04T22:53:12.721Z,58.06
2023-04-04T22:55:40.212Z,58.03
2023-04-04T22:58:07.417Z,57.99
2023-04-04T23:00:34.633Z,58.16
2023-04-04T23:03:02.078Z,57.74
2023-04-04T23:05:29.124Z,57.53
2023-04-04T23:08:01.203Z,57.75
2023-04-04T23:10:27.597Z,57.66
2023-04-04T23:12:53.970Z,58.25
2023-04-04T23:15:20.321Z,57.64
2023-04-04T23:17:46.697Z,58.54
2023-04-04T23:20:13.224Z,57.97
2023-04-04T23:22:39.615Z,58.00
2023-04-04T23:25:07.494Z,58.17
2023-04-04T23:27:34.337Z,58.44
2023-04-04T23:30:04.488Z,58.61
2023-04-04T23:32:33.245Z,58.69
2023-04-04T23:34:59.703Z,59.30
2023-04-04T23:37:26.115Z,58.75
2023-04-04T23:39:52.462Z,59.49
2023-04-04T23:42:18.781Z,59.11
2023-04-04T23:44:45.606Z,58.78
2023-04-04T23:47:12.246Z,58.79
2023-04-04T23:49:38.677Z,58.69
2023-04-04T23:52:06.201Z,58.76
2023-04-04T23:54:32.638Z,58.74
2023-04-04T23:56:58.965Z,59.51
2023-04-04T23:59:25.805Z,59.19
